Thunder radar more information blitzortung!


Radar de pluja more information rain snow radar


Visita la nostra xarxa de llocs de meteo:

Template documentation
and downloads

And another site



No particular awareness of the weather is required.    There are no Weather-warnings

Pagina Historial Weather Underground text

Diari Resum Juliol 4, 2017 Unitats:  Mètric    Imperial   Tant
« Previous Dia
SegĂźent Dia »
Diari Setmana Mensual Anual Personalitzada
  Maxima: Minima: Media:
Temperatura: -17.8 °C -8.7 °C -3.3 °C
Punt de rosada: -17.8 °C -12.9 °C -11.5 °C
Humitat: Humidity % 26 % 42 %
Wind Speed: 0 km/h 0 km/h 11.4 km/h
RĂ fegues de vent: 0 km/h - -
Vent:- - SSW
Pression baro: 0 hPa 34361.1 hPa -
Precipitacions: 0 mm    
Historical Graphs
 
 
Dades de taula per Juliol 4, 2017
Temps Temperatura Punt de rosada Pression baro Vent Wind Speed RĂ fegues de vent Humitat Rainfall Rate (Hourly)
-17.8 °C -17.8 °C 0 hPa Calm     Humidity % 0 mm
00:00 -7.9 °C -10.3 °C 34462.7 hPa Calm   2.6 km/h 76 % 0 mm
00:01 -5.9 °C -11.4 °C 34496.6 hPa WSW 6 km/h 6 km/h 53 % 0 mm
00:06 -5.9 °C -11.5 °C 34496.6 hPa West 6 km/h 6 km/h 53 % 0 mm
00:10 -8 °C -10.5 °C 34462.7 hPa Calm   5.1 km/h 75 % 0 mm
00:20 -8.1 °C -10.6 °C 34462.7 hPa Calm     75 % 0 mm
00:30 -8.3 °C -10.7 °C 34462.7 hPa Calm   5.1 km/h 76 % 0 mm
00:40 -8.4 °C -10.8 °C 34462.7 hPa WSW 2.6 km/h 7.7 km/h 76 % 0 mm
00:50 -8.6 °C -10.8 °C 34462.7 hPa WSW 5.1 km/h 5.1 km/h 77 % 0 mm
01:00 -8.6 °C -10.9 °C 34462.7 hPa SW 2.6 km/h 5.1 km/h 77 % 0 mm
01:10 -8.6 °C -10.7 °C 34462.7 hPa Calm   5.1 km/h 78 % 0 mm
01:20 -8.6 °C -10.7 °C 34462.7 hPa Calm   2.6 km/h 78 % 0 mm
01:30 -8.6 °C -10.7 °C 34462.7 hPa Calm     79 % 0 mm
01:40 -8.6 °C -10.7 °C 34462.7 hPa Calm     79 % 0 mm
01:50 -8.6 °C -10.7 °C 34462.7 hPa Calm   2.6 km/h 79 % 0 mm
02:00 -8.7 °C -10.8 °C 34462.7 hPa WSW 5.1 km/h 5.1 km/h 78 % 0 mm
02:10 -8.7 °C -10.8 °C 34462.7 hPa SW 2.6 km/h 5.1 km/h 78 % 0 mm
02:20 -8.5 °C -10.9 °C 34496.6 hPa SW 5.1 km/h 5.1 km/h 76 % 0 mm
02:30 -8.4 °C -10.7 °C 34496.6 hPa Calm   5.1 km/h 76 % 0 mm
02:40 -8.1 °C -10.7 °C 34496.6 hPa SW 2.6 km/h 5.1 km/h 74 % 0 mm
02:50 -7.6 °C -10.3 °C 34496.6 hPa Calm   2.6 km/h 73 % 0 mm
03:00 -7.1 °C -10.1 °C 34496.6 hPa SW 2.6 km/h 2.6 km/h 71 % 0 mm
03:10 -6.6 °C -10 °C 34496.6 hPa Calm   2.6 km/h 68 % 0 mm
03:20 -6.6 °C -10.2 °C 34496.6 hPa ESE 2.6 km/h 5.1 km/h 66 % 0 mm
03:30 -6.7 °C -10.2 °C 34496.6 hPa SW 2.6 km/h 7.7 km/h 67 % 0 mm
03:40 -6.3 °C -10.1 °C 34496.6 hPa SSW 2.6 km/h 5.1 km/h 65 % 0 mm
03:50 -6 °C -10.1 °C 34496.6 hPa South 2.6 km/h 5.1 km/h 63 % 0 mm
04:00 -5.7 °C -9.9 °C 34496.6 hPa SE 5.1 km/h 5.1 km/h 62 % 0 mm
04:10 -5.4 °C -9.8 °C 34496.6 hPa SE 2.6 km/h 5.1 km/h 61 % 0 mm
04:20 -4.8 °C -9.3 °C 34496.6 hPa South 2.6 km/h 5.1 km/h 60 % 0 mm
04:30 -4.8 °C -9.6 °C 34496.6 hPa Calm   7.7 km/h 58 % 0 mm
04:40 -4.4 °C -9.6 °C 34496.6 hPa NE 5.1 km/h 7.7 km/h 56 % 0 mm
04:50 -4.3 °C -10.2 °C 34496.6 hPa ENE 5.1 km/h 7.7 km/h 52 % 0 mm
05:00 -4 °C -9.8 °C 34462.7 hPa Calm   5.1 km/h 52 % 0 mm
10:01 -3.6 °C -9.8 °C 34462.7 hPa West 6 km/h   50 % 0 mm
10:06 -3.3 °C -9.8 °C 34462.7 hPa WSW 8 km/h 8 km/h 49 % 0 mm
10:11 -3.7 °C -10.3 °C 34462.7 hPa SSE 9 km/h 9 km/h 48 % 0 mm
10:16 -3.4 °C -10.1 °C 34462.7 hPa ESE 6 km/h 6 km/h 48 % 0 mm
10:21 -3.4 °C -10.2 °C 34462.7 hPa NE 9 km/h 9 km/h 47 % 0 mm
10:26 -3.4 °C -10.2 °C 34462.7 hPa ENE 3.1 km/h 3.1 km/h 47 % 0 mm
10:31 -3.1 °C -10.1 °C 34462.7 hPa East 9 km/h 9 km/h 46 % 0 mm
10:36 -2.8 °C -9.8 °C 34462.7 hPa South 6 km/h 6 km/h 46 % 0 mm
10:41 -2.7 °C -9.9 °C 34428.8 hPa SW 7.6 km/h 7.6 km/h 45 % 0 mm
10:46 -2.7 °C -9.9 °C 34428.8 hPa West 11.9 km/h 11.9 km/h 45 % 0 mm
10:51 -2.4 °C -10 °C 34428.8 hPa SE 9.3 km/h 9.3 km/h 43 % 0 mm
10:56 -2.1 °C -10.1 °C 34462.7 hPa SSE 12.7 km/h 12.7 km/h 41 % 0 mm
11:01 -2.1 °C -10.1 °C 34462.7 hPa SW 7.6 km/h 7.6 km/h 41 % 0 mm
11:06 -1.9 °C -10.1 °C 34462.7 hPa SW 15 km/h 15 km/h 41 % 0 mm
11:11 -1.9 °C -9.9 °C 34428.8 hPa West 11.9 km/h 11.9 km/h 41 % 0 mm
11:16 -1.8 °C -10.1 °C 34428.8 hPa SW 6 km/h 6.3 km/h 40 % 0 mm
11:21 -1.8 °C -10.6 °C 34428.8 hPa SW 9.3 km/h 9.3 km/h 38 % 0 mm
11:26 -1.4 °C -10.7 °C 34462.7 hPa SE 9 km/h 9 km/h 36 % 0 mm
11:31 -1.4 °C -10.4 °C 34462.7 hPa NW 11.9 km/h 11.9 km/h 37 % 0 mm
11:36 -1.4 °C -10.7 °C 34462.7 hPa NNW 11.9 km/h 11.9 km/h 36 % 0 mm
11:41 -1.1 °C -10.8 °C 34462.7 hPa SSW 6 km/h 6 km/h 34 % 0 mm
11:46 -0.9 °C -10.4 °C 34462.7 hPa SW 9 km/h 9 km/h 35 % 0 mm
11:51 -0.9 °C -10.7 °C 34462.7 hPa SW 9 km/h 9 km/h 34 % 0 mm
11:56 -1.2 °C -10.7 °C 34462.7 hPa SW 15.6 km/h 15.6 km/h 35 % 0 mm
12:01 -1.1 °C -11.1 °C 34462.7 hPa WSW 6.3 km/h 6.3 km/h 33 % 0 mm
12:06 -0.9 °C -11 °C 34462.7 hPa WSW 15 km/h 15 km/h 33 % 0 mm
12:11 -0.7 °C -11.1 °C 34462.7 hPa SSW 8.5 km/h 8.5 km/h 32 % 0 mm
12:16 -0.4 °C -10.8 °C 34462.7 hPa SSW 14.5 km/h 14.5 km/h 32 % 0 mm
12:21 -0.7 °C -11.9 °C 34462.7 hPa East 15 km/h 15 km/h 29 % 0 mm
12:26 -0.7 °C -11.3 °C 34428.8 hPa West 9 km/h 9 km/h 31 % 0 mm
12:31 -0.6 °C -11.4 °C 34428.8 hPa SW 17.9 km/h 17.9 km/h 30 % 0 mm
12:36 -0.6 °C -11.7 °C 34428.8 hPa SE 9 km/h 9 km/h 29 % 0 mm
12:41 -0.3 °C -11.2 °C 34428.8 hPa WNW 6 km/h 6 km/h 30 % 0 mm
12:46 -0.3 °C -11.3 °C 34428.8 hPa WSW 9.8 km/h 9.8 km/h 30 % 0 mm
12:51 -0.1 °C -11.1 °C 34428.8 hPa South 6 km/h 6 km/h 30 % 0 mm
12:56 -0.2 °C -11.4 °C 34428.8 hPa SSE 15 km/h 15 km/h 29 % 0 mm
13:01 -0.4 °C -11.3 °C 34428.8 hPa SSE 15 km/h 15 km/h 30 % 0 mm
13:06 -0.6 °C -11.2 °C 34428.8 hPa ESE 26.9 km/h 26.9 km/h 31 % 0 mm
13:11 -1 °C -11 °C 34395 hPa ENE 25.1 km/h 25.1 km/h 33 % 0 mm
13:16 -1.1 °C -11.1 °C 34395 hPa ESE 18.3 km/h 18.3 km/h 33 % 0 mm
13:21 -1.1 °C -11.1 °C 34395 hPa SSE 23.8 km/h 23.8 km/h 33 % 0 mm
13:26 -0.9 °C -10.9 °C 34395 hPa East 17.9 km/h 17.9 km/h 33 % 0 mm
13:31 -1.1 °C -11.4 °C 34395 hPa ESE 29.8 km/h 29.8 km/h 32 % 0 mm
13:32 -1.1 °C -11.3 °C 34395 hPa ESE 20.9 km/h 20.9 km/h 32 % 0 mm
13:37 -0.8 °C -11.1 °C 34395 hPa ESE 20.9 km/h 20.9 km/h 32 % 0 mm
13:42 -0.8 °C -11.3 °C 34395 hPa ESE 23.8 km/h 23.8 km/h 31 % 0 mm
13:47 -0.9 °C -11.7 °C 34395 hPa ESE 32.8 km/h 32.8 km/h 30 % 0 mm
13:52 -0.7 °C -11.6 °C 34395 hPa SE 19.2 km/h 19.2 km/h 30 % 0 mm
13:57 -0.4 °C -11.3 °C 34395 hPa ESE 15 km/h 15 km/h 30 % 0 mm
14:02 -0.4 °C -11.6 °C 34395 hPa WSW 15 km/h 15 km/h 29 % 0 mm
14:07 -0.1 °C -11.1 °C 34395 hPa SSW 11.9 km/h 11.9 km/h 30 % 0 mm
14:12 0 °C -11.3 °C 34395 hPa SW 20.9 km/h 20.9 km/h 29 % 0 mm
14:17 0.2 °C -11.1 °C 34395 hPa WSW 11.9 km/h 11.9 km/h 29 % 0 mm
14:22 0.2 °C -11.1 °C 34395 hPa SSW 15 km/h 15 km/h 29 % 0 mm
14:27 0.1 °C -11.5 °C 34395 hPa SSW 15 km/h 15 km/h 28 % 0 mm
14:32 0.2 °C -11.3 °C 34395 hPa WSW 22.5 km/h 22.5 km/h 28 % 0 mm
14:37 0.2 °C -11.3 °C 34395 hPa SW 15 km/h 15 km/h 28 % 0 mm
14:42 0.6 °C -11.1 °C 34395 hPa SSE 20.9 km/h 20.9 km/h 28 % 0 mm
14:47 0.4 °C -11.2 °C 34395 hPa South 15 km/h 15 km/h 28 % 0 mm
14:52 0.3 °C -11.3 °C 34395 hPa SW 20.9 km/h 20.9 km/h 28 % 0 mm
14:57 0.2 °C -11.3 °C 34395 hPa South 26.9 km/h 26.9 km/h 28 % 0 mm
15:02 0 °C -11.6 °C 34395 hPa SW 26.9 km/h 26.9 km/h 28 % 0 mm
15:07 0.1 °C -11.4 °C 34395 hPa SW 15 km/h 15 km/h 28 % 0 mm
15:12 0.1 °C -11.5 °C 34395 hPa SW 20.9 km/h 20.9 km/h 28 % 0 mm
15:17 0.1 °C -11.4 °C 34395 hPa SW 23.8 km/h 23.8 km/h 28 % 0 mm
15:22 0 °C -11.6 °C 34395 hPa SSW 29.8 km/h 29.8 km/h 28 % 0 mm
15:27 0 °C -11.6 °C 34395 hPa SSW 15.6 km/h 15.6 km/h 28 % 0 mm
15:32 0.2 °C -11.4 °C 34395 hPa WSW 23.8 km/h 23.8 km/h 28 % 0 mm
15:37 0.5 °C -11.1 °C 34395 hPa SSW 11.9 km/h 11.9 km/h 28 % 0 mm
15:42 0.4 °C -11.5 °C 34395 hPa ESE 15 km/h 15 km/h 27 % 0 mm
15:47 0.6 °C -11.4 °C 34395 hPa SSW 19.2 km/h 19.2 km/h 27 % 0 mm
15:52 0.3 °C -11.6 °C 34395 hPa South 15 km/h 15 km/h 27 % 0 mm
15:57 0.4 °C -11.5 °C 34395 hPa SSE 15 km/h 15 km/h 27 % 0 mm
16:02 0.6 °C -11.4 °C 34395 hPa South 15.3 km/h 15.3 km/h 27 % 0 mm
16:07 0.1 °C -11.8 °C 34395 hPa SSE 23.8 km/h 23.8 km/h 27 % 0 mm
16:12 0.3 °C -11.6 °C 34395 hPa WSW 11.9 km/h 11.9 km/h 27 % 0 mm
16:17 -0.1 °C -11.9 °C 34395 hPa SW 29.8 km/h 29.8 km/h 27 % 0 mm
16:22 -0.1 °C -11.6 °C 34395 hPa SSW 18.3 km/h 18.3 km/h 28 % 0 mm
16:27 0.1 °C -11.8 °C 34395 hPa WSW 28.2 km/h 28.2 km/h 27 % 0 mm
16:28 0 °C -11.8 °C 34395 hPa SSW 29.8 km/h 29.8 km/h 27 % 0 mm
16:33 -0.1 °C -11.6 °C 34395 hPa West 20.9 km/h 20.9 km/h 28 % 0 mm
16:38 0 °C -11.8 °C 34395 hPa South 15.6 km/h 15.6 km/h 27 % 0 mm
16:43 0 °C -11.8 °C 34395 hPa South 17.9 km/h 17.9 km/h 27 % 0 mm
16:48 -0.2 °C -11.7 °C 34395 hPa SW 26.9 km/h 26.9 km/h 28 % 0 mm
16:53 0.1 °C -11.8 °C 34395 hPa SW 20.9 km/h 20.9 km/h 27 % 0 mm
16:58 0.1 °C -11.8 °C 34395 hPa SW 15 km/h 15 km/h 27 % 0 mm
17:03 0.1 °C -11.8 °C 34395 hPa SW 14.5 km/h 14.5 km/h 27 % 0 mm
17:08 0.1 °C -11.8 °C 34395 hPa SW 16.6 km/h 16.6 km/h 27 % 0 mm
17:13 0.1 °C -11.8 °C 34395 hPa SW 9 km/h 10.3 km/h 27 % 0 mm
17:18 0.2 °C -11.7 °C 34395 hPa WSW 20.9 km/h 20.9 km/h 27 % 0 mm
17:23 -0.1 °C -11.9 °C 34395 hPa SSE 15 km/h 15 km/h 27 % 0 mm
17:28 0.1 °C -12.1 °C 34395 hPa West 11.1 km/h 11.1 km/h 26 % 0 mm
17:33 0.1 °C -11.8 °C 34395 hPa SW 15 km/h 15 km/h 27 % 0 mm
17:38 -0.3 °C -12.1 °C 34395 hPa SW 23.8 km/h 23.8 km/h 27 % 0 mm
17:43 -0.4 °C -12.2 °C 34361.1 hPa SW 20.3 km/h 20.3 km/h 27 % 0 mm
17:48 -0.5 °C -12.3 °C 34361.1 hPa SSW 15 km/h 16.1 km/h 27 % 0 mm
17:53 -0.4 °C -12.2 °C 34361.1 hPa WSW 14 km/h 14 km/h 27 % 0 mm
17:54 -0.4 °C -12.2 °C 34361.1 hPa South 9 km/h 9 km/h 27 % 0 mm
17:59 -0.6 °C -12.1 °C 34361.1 hPa SSW 23.8 km/h 23.8 km/h 28 % 0 mm
18:04 -0.4 °C -11.9 °C 34361.1 hPa SW 15 km/h 15 km/h 28 % 0 mm
18:09 -0.3 °C -11.8 °C 34361.1 hPa SSW 19.2 km/h 19.2 km/h 28 % 0 mm
18:14 -0.3 °C -11.8 °C 34361.1 hPa SSW 16.6 km/h 16.6 km/h 28 % 0 mm
18:19 -0.7 °C -12.1 °C 34361.1 hPa SW 25.9 km/h 25.9 km/h 28 % 0 mm
18:24 -0.9 °C -12.3 °C 34361.1 hPa SW 16.1 km/h 16.1 km/h 28 % 0 mm
18:29 -0.9 °C -12.3 °C 34361.1 hPa West 18.3 km/h 18.3 km/h 28 % 0 mm
18:34 -0.9 °C -12.3 °C 34361.1 hPa SSW 20.9 km/h 20.9 km/h 28 % 0 mm
18:39 -1.2 °C -12.6 °C 34361.1 hPa WSW 23.8 km/h 23.8 km/h 28 % 0 mm
18:44 -1.1 °C -12.5 °C 34361.1 hPa SW 32.8 km/h 32.8 km/h 28 % 0 mm
18:49 -1.2 °C -12.6 °C 34361.1 hPa SW 17.9 km/h 17.9 km/h 28 % 0 mm
18:54 -1.4 °C -12.7 °C 34361.1 hPa SW 26.9 km/h 26.9 km/h 28 % 0 mm
18:59 -1.3 °C -12.7 °C 34361.1 hPa SW 23.8 km/h 23.8 km/h 28 % 0 mm
19:04 -1.6 °C -12.9 °C 34361.1 hPa SW 23.8 km/h 23.8 km/h 28 % 0 mm
19:09 -1.6 °C -12.9 °C 34361.1 hPa SW 20.3 km/h 20.3 km/h 28 % 0 mm
19:14 -1.7 °C -12.9 °C 34361.1 hPa SW 15 km/h 15 km/h 28 % 0 mm
19:19 -1.4 °C -12.5 °C 34361.1 hPa South 15 km/h 15 km/h 29 % 0 mm
19:20 -6 °C -11.6 °C 34428.8 hPa Calm   2.6 km/h 53 % 0 mm
19:24 -1.5 °C -12.6 °C 34361.1 hPa WSW 9.3 km/h 9.3 km/h 29 % 0 mm
19:29 -1.8 °C -12.5 °C 34361.1 hPa SW 20.9 km/h 20.9 km/h 30 % 0 mm
19:30 -6.1 °C -11.5 °C 34395 hPa WNW 2.6 km/h 2.6 km/h 54 % 0 mm
19:34 -1.9 °C -12.6 °C 34361.1 hPa SW 16.6 km/h 16.6 km/h 30 % 0 mm
19:35 -6.2 °C -11.4 °C 34395 hPa Calm     55 % 0 mm
19:39 -2 °C -12.7 °C 34361.1 hPa SW 15 km/h 15 km/h 30 % 0 mm
19:44 -2.1 °C -12.7 °C 34395 hPa SW 26.9 km/h 26.9 km/h 30 % 0 mm
19:45 -6.3 °C -11.5 °C 34395 hPa Calm   2.6 km/h 55 % 0 mm
19:49 -2.2 °C -12.9 °C 34395 hPa WSW 15 km/h 15 km/h 30 % 0 mm
19:54 -2.2 °C -12.9 °C 34395 hPa South 15 km/h 15 km/h 30 % 0 mm
19:59 -2.3 °C -12.7 °C 34361.1 hPa WSW 23.8 km/h 23.8 km/h 31 % 0 mm
20:04 -2.4 °C -12.8 °C 34361.1 hPa SSW 18.3 km/h 18.3 km/h 31 % 0 mm
20:05 -6.5 °C -11.4 °C 34395 hPa Calm     57 % 0 mm
20:09 -2.4 °C -12.6 °C 34361.1 hPa SSW 14.5 km/h 14.5 km/h 32 % 0 mm
20:10 -6.6 °C -11.5 °C 34395 hPa Calm     57 % 0 mm
20:14 -2.7 °C -12.7 °C 34395 hPa SW 15 km/h 15 km/h 32 % 0 mm
20:15 -6.7 °C -11.4 °C 34395 hPa Calm     58 % 0 mm
20:19 -2.8 °C -12.8 °C 34395 hPa South 15 km/h 15 km/h 32 % 0 mm
20:24 -2.8 °C -12.8 °C 34395 hPa SSE 15 km/h 15 km/h 32 % 0 mm
20:25 -6.8 °C -11.4 °C 34395 hPa West 2.6 km/h 2.6 km/h 59 % 0 mm
20:29 -2.9 °C -12.7 °C 34395 hPa SW 9 km/h 9 km/h 33 % 0 mm
20:34 -3.1 °C -12.6 °C 34395 hPa SW 20.9 km/h 20.9 km/h 34 % 0 mm
20:35 -6.9 °C -11.5 °C 34395 hPa WSW 2.6 km/h 5.1 km/h 59 % 0 mm
20:39 -3.2 °C -12.7 °C 34395 hPa SW 17.9 km/h 17.9 km/h 34 % 0 mm
20:44 -3.3 °C -12.8 °C 34395 hPa WSW 23.8 km/h 23.8 km/h 34 % 0 mm
20:45 -7.1 °C -11.6 °C 34395 hPa Calm   5.1 km/h 60 % 0 mm
20:49 -3.4 °C -12.9 °C 34395 hPa WSW 9 km/h 9 km/h 34 % 0 mm
20:54 -3.5 °C -12.9 °C 34395 hPa SW 17.9 km/h 17.9 km/h 34 % 0 mm
20:55 -7.2 °C -11.6 °C 34395 hPa Calm   5.1 km/h 60 % 0 mm
20:59 -3.6 °C -12.8 °C 34395 hPa SSW 15 km/h 15 km/h 35 % 0 mm
21:04 -3.7 °C -12.9 °C 34395 hPa SSW 15 km/h 15 km/h 35 % 0 mm
21:05 -7.2 °C -11.4 °C 34395 hPa WSW 5.1 km/h 5.1 km/h 61 % 0 mm
21:09 -3.8 °C -12.9 °C 34395 hPa SW 20.9 km/h 20.9 km/h 35 % 0 mm
21:14 -3.8 °C -12.8 °C 34395 hPa WSW 11.9 km/h 11.9 km/h 36 % 0 mm
21:15 -7.2 °C -11.5 °C 34395 hPa NE 5.1 km/h 5.1 km/h 61 % 0 mm
21:19 -3.9 °C -12.7 °C 34395 hPa SW 17.9 km/h 17.9 km/h 37 % 0 mm
21:24 -4.1 °C -12.8 °C 34395 hPa SSW 17.9 km/h 17.9 km/h 37 % 0 mm
21:25 -7.2 °C -11.5 °C 34395 hPa NE 2.6 km/h 5.1 km/h 61 % 0 mm
21:29 -4.1 °C -12.6 °C 34395 hPa SW 15 km/h 15 km/h 38 % 0 mm
21:34 -4.2 °C -12.7 °C 34395 hPa WSW 15 km/h 15 km/h 38 % 0 mm
21:35 -4.2 °C -12.7 °C 34395 hPa WSW 11.9 km/h 11.9 km/h 38 % 0 mm
21:39 -4.3 °C -12.6 °C 34395 hPa WSW 15 km/h 15 km/h 39 % 0 mm
21:44 -4.4 °C -12.6 °C 34395 hPa SW 17.9 km/h 17.9 km/h 39 % 0 mm
21:45 -7.4 °C -11.6 °C 34395 hPa Calm   2.6 km/h 62 % 0 mm
21:49 -4.4 °C -12.4 °C 34395 hPa SW 15 km/h 15 km/h 40 % 0 mm
21:54 -4.6 °C -12.6 °C 34395 hPa SW 15.3 km/h 15.3 km/h 40 % 0 mm
21:55 -7.6 °C -11.6 °C 34395 hPa Calm     63 % 0 mm
21:59 -4.6 °C -12.4 °C 34395 hPa SW 9 km/h 9 km/h 41 % 0 mm
22:04 -4.7 °C -12.5 °C 34395 hPa SW 15 km/h 15 km/h 41 % 0 mm
22:05 -7.7 °C -11.6 °C 34361.1 hPa Calm     64 % 0 mm
22:09 -4.8 °C -12.3 °C 34395 hPa WSW 11.1 km/h 11.1 km/h 42 % 0 mm
22:14 -4.9 °C -12.3 °C 34395 hPa SW 15 km/h 15 km/h 43 % 0 mm
22:15 -7.8 °C -11.7 °C 34395 hPa SW 2.6 km/h 2.6 km/h 64 % 0 mm
22:19 -4.9 °C -12.1 °C 34395 hPa SW 9 km/h 9 km/h 44 % 0 mm
22:24 -5 °C -12 °C 34395 hPa WSW 12.7 km/h 12.7 km/h 45 % 0 mm
22:25 -7.9 °C -11.6 °C 34395 hPa Calm     65 % 0 mm
22:29 -5.1 °C -11.8 °C 34395 hPa WSW 9.3 km/h 9.3 km/h 46 % 0 mm
22:34 -5.1 °C -11.7 °C 34395 hPa SW 9 km/h 9 km/h 47 % 0 mm
22:35 -8 °C -11.6 °C 34361.1 hPa Calm     66 % 0 mm
22:39 -5.2 °C -11.8 °C 34395 hPa SW 6 km/h 7.6 km/h 47 % 0 mm
22:44 -5.3 °C -11.7 °C 34395 hPa SW 6 km/h 6 km/h 48 % 0 mm
22:45 -8.1 °C -11.7 °C 34428.8 hPa Calm     66 % 0 mm
22:49 -5.3 °C -11.6 °C 34395 hPa SW 6 km/h 6 km/h 49 % 0 mm
22:54 -5.4 °C -11.6 °C 34395 hPa SSW 6.8 km/h 6.8 km/h 49 % 0 mm
22:55 -8.1 °C -11.7 °C 34428.8 hPa Calm     66 % 0 mm
22:59 -5.4 °C -11.6 °C 34395 hPa WSW 6 km/h 6 km/h 49 % 0 mm
23:04 -5.4 °C -11.5 °C 34395 hPa WSW 6 km/h 6 km/h 50 % 0 mm
23:05 -8.2 °C -11.6 °C 34395 hPa Calm     67 % 0 mm
23:09 -5.5 °C -11.6 °C 34395 hPa WNW 3.1 km/h 3.1 km/h 50 % 0 mm
23:14 -5.5 °C -11.6 °C 34395 hPa SW 6 km/h 6 km/h 50 % 0 mm
23:15 -8.2 °C -11.7 °C 34395 hPa Calm     67 % 0 mm
23:19 -5.6 °C -11.6 °C 34395 hPa WSW 6 km/h 6 km/h 50 % 0 mm
23:24 -5.6 °C -11.4 °C 34395 hPa NNW 2.3 km/h   51 % 0 mm
23:25 -8.3 °C -11.7 °C 34395 hPa Calm     67 % 0 mm
23:29 -5.6 °C -11.5 °C 34395 hPa WSW 6 km/h 6 km/h 51 % 0 mm
23:34 -5.6 °C -11.5 °C 34395 hPa WSW 3.1 km/h   51 % 0 mm
23:35 -8.3 °C -11.7 °C 34395 hPa Calm     67 % 0 mm
23:39 -5.7 °C -11.4 °C 34395 hPa West 3.1 km/h   52 % 0 mm
23:44 -5.7 °C -11.4 °C 34395 hPa WSW 6 km/h 6 km/h 52 % 0 mm
23:45 -8.4 °C -11.8 °C 34395 hPa Calm   2.6 km/h 68 % 0 mm
23:49 -5.7 °C -11.4 °C 34395 hPa WNW 3.1 km/h 3.1 km/h 52 % 0 mm
23:54 -5.7 °C -11.4 °C 34395 hPa West 6 km/h 6 km/h 52 % 0 mm
23:55 -8.5 °C -11.7 °C 34395 hPa Calm     69 % 0 mm
23:59 -5.8 °C -11.3 °C 34395 hPa West 2.3 km/h   53 % 0 mm
Meteo Sesrovires
Elogis d' Weather Underground - 1.5 mb

Guio original per  Jim McMurry - jmcmurry@mwt.net Adaptat per a la plantilla per  Wim van der Kuil - Leuven-Template.eu

Trobareu la nostra informacio del temps tambe a:

Weather Underground

AWEKAS